Time;durP1;ratioP1;P1;durP2;ratioP2;P2;SDS_P1;SDS_P2;PMS_P1;PMS_P2;Temp;Humidity;BMP_temperature;BMP_pressure;BME280_temperature;BME280_humidity;BME280_pressure;Samples;Min_cycle;Max_cycle;Signal;HPM_P1;HPM_P2
2023/04/05 00:00:21;;;;;;;0.30;0.30;;;;;;;11.19;44.77;102616.13;5035805;28;20029;-65
2023/04/05 00:02:46;;;;;;;0.20;0.20;;;;;;;11.14;44.63;102632.84;5053850;28;20033;-66
2023/04/05 00:05:11;;;;;;;0.30;0.30;;;;;;;10.99;45.12;102623.91;5035228;28;20033;-64
2023/04/05 00:07:37;;;;;;;0.20;0.20;;;;;;;10.88;45.09;102620.84;5053958;28;20021;-65
2023/04/05 00:10:03;;;;;;;0.20;0.20;;;;;;;11.04;45.09;102626.06;5050870;28;20517;-64
2023/04/05 00:12:28;;;;;;;0.20;0.20;;;;;;;10.93;45.48;102613.88;5053079;28;20059;-65
2023/04/05 00:14:53;;;;;;;0.20;0.20;;;;;;;10.74;46.20;102622.50;5052372;28;20045;-66
2023/04/05 00:17:19;;;;;;;0.20;0.20;;;;;;;11.12;44.65;102621.44;5053280;28;20132;-66
2023/04/05 00:19:50;;;;;;;0.28;0.28;;;;;;;10.85;44.63;102613.16;5053335;28;20028;-65
2023/04/05 00:22:19;;;;;;;0.20;0.20;;;;;;;10.93;44.92;102605.00;5054225;28;20025;-65
2023/04/05 00:24:44;;;;;;;0.28;0.28;;;;;;;10.82;45.20;102606.28;5053223;28;20044;-66
2023/04/05 00:27:09;;;;;;;0.22;0.22;;;;;;;10.85;45.53;102605.91;5053101;28;20025;-66
2023/04/05 00:29:35;;;;;;;0.20;0.20;;;;;;;10.83;45.10;102605.25;5053151;28;20124;-65
2023/04/05 00:32:00;;;;;;;0.30;0.30;;;;;;;10.87;45.20;102603.06;5053083;28;20048;-67
2023/04/05 00:34:26;;;;;;;0.30;0.30;;;;;;;10.84;45.64;102600.72;5045422;28;20029;-65
2023/04/05 00:36:51;;;;;;;0.20;0.20;;;;;;;10.66;46.27;102602.91;5015076;28;20045;-64
2023/04/05 00:39:17;;;;;;;0.17;0.17;;;;;;;10.73;45.15;102598.47;5032863;28;20128;-66
2023/04/05 00:41:43;;;;;;;0.28;0.28;;;;;;;10.70;45.42;102590.75;5032810;28;20046;-66
2023/04/05 00:44:08;;;;;;;0.20;0.20;;;;;;;10.56;46.07;102595.09;5033233;28;20478;-65
2023/04/05 00:46:35;;;;;;;0.20;0.20;;;;;;;10.67;45.25;102594.69;5051019;28;20063;-65
2023/04/05 00:49:01;;;;;;;0.30;0.30;;;;;;;10.68;44.65;102588.28;5053165;28;20503;-65
2023/04/05 00:51:26;;;;;;;0.20;0.20;;;;;;;10.36;46.16;102580.50;5052594;28;20029;-66
2023/04/05 00:53:53;;;;;;;0.20;0.20;;;;;;;10.52;45.93;102583.03;5052729;28;20033;-66
2023/04/05 00:56:20;;;;;;;0.20;0.20;;;;;;;10.65;45.13;102585.13;5053029;28;20045;-67
2023/04/05 00:58:47;;;;;;;0.20;0.20;;;;;;;10.33;46.03;102589.78;5052315;28;20043;-66
2023/04/05 01:01:17;;;;;;;0.30;0.30;;;;;;;10.53;45.60;102588.22;5034820;28;20041;-66
2023/04/05 01:03:48;;;;;;;0.38;0.38;;;;;;;10.64;45.63;102584.28;5052783;28;20370;-66
2023/04/05 01:06:34;;;;;;;0.30;0.30;;;;;;;10.55;45.70;102578.13;5034209;28;20045;-65
2023/04/05 01:09:03;;;;;;;0.30;0.30;;;;;;;10.40;44.99;102584.50;5051845;28;20066;-65
2023/04/05 01:11:31;;;;;;;0.30;0.30;;;;;;;10.34;46.40;102585.22;5049688;28;20040;-66
2023/04/05 01:13:58;;;;;;;0.30;0.30;;;;;;;10.34;45.40;102588.75;5042693;28;20044;-67
2023/04/05 01:16:24;;;;;;;0.40;0.40;;;;;;;10.27;45.78;102578.91;5052886;28;20100;-66
2023/04/05 01:18:55;;;;;;;0.20;0.20;;;;;;;10.25;45.23;102570.19;5052026;28;20404;-66
2023/04/05 01:21:38;;;;;;;0.30;0.30;;;;;;;10.41;45.51;102573.59;5052145;28;20282;-64
2023/04/05 01:24:08;;;;;;;0.30;0.30;;;;;;;10.26;45.17;102572.69;5051946;28;20151;-64
2023/04/05 01:26:46;;;;;;;0.20;0.20;;;;;;;10.24;45.80;102568.53;5051928;28;20043;-65
2023/04/05 01:29:30;;;;;;;0.38;0.38;;;;;;;10.27;45.25;102565.47;5052007;28;20412;-65
2023/04/05 01:32:28;;;;;;;0.30;0.30;;;;;;;10.34;44.52;102571.78;5051859;28;20461;-66
2023/04/05 01:35:21;;;;;;;0.20;0.20;;;;;;;10.35;44.92;102574.31;5050117;28;20055;-66
2023/04/05 01:37:51;;;;;;;0.30;0.30;;;;;;;9.98;46.32;102568.03;5051969;28;20025;-67
2023/04/05 01:40:17;;;;;;;0.30;0.30;;;;;;;10.01;46.20;102567.66;5052074;28;20028;-64
2023/04/05 01:42:46;;;;;;;0.20;0.20;;;;;;;9.95;45.38;102560.31;5052160;28;20033;-64
2023/04/05 01:45:12;;;;;;;0.20;0.20;;;;;;;10.02;45.73;102562.13;5055492;28;20033;-64
2023/04/05 01:47:37;;;;;;;0.30;0.30;;;;;;;10.06;45.19;102566.13;5057044;28;20037;-64
2023/04/05 01:50:03;;;;;;;0.30;0.30;;;;;;;10.10;45.28;102563.94;5056149;28;20036;-64
2023/04/05 01:52:28;;;;;;;0.30;0.30;;;;;;;9.88;46.32;102557.53;5054775;28;20035;-64
2023/04/05 01:54:54;;;;;;;0.20;0.20;;;;;;;9.96;45.73;102562.00;5054206;28;20053;-65
2023/04/05 01:57:19;;;;;;;0.30;0.30;;;;;;;9.87;46.22;102555.03;5054216;28;20040;-65
2023/04/05 01:59:44;;;;;;;0.30;0.30;;;;;;;9.95;46.26;102554.94;5053312;28;20043;-64
2023/04/05 02:02:10;;;;;;;0.20;0.20;;;;;;;10.01;45.83;102547.00;5051561;28;20175;-66
2023/04/05 02:04:35;;;;;;;0.30;0.30;;;;;;;9.85;44.98;102541.75;5052264;28;20082;-65
2023/04/05 02:07:01;;;;;;;0.20;0.20;;;;;;;9.89;45.80;102545.75;5051635;28;20037;-66
2023/04/05 02:09:27;;;;;;;0.30;0.30;;;;;;;9.88;45.77;102541.41;5048157;28;20049;-68
2023/04/05 02:11:52;;;;;;;0.30;0.30;;;;;;;9.79;46.30;102542.47;5051153;28;20508;-63
2023/04/05 02:14:17;;;;;;;0.30;0.30;;;;;;;9.71;46.66;102538.00;5051336;28;20460;-65
2023/04/05 02:16:43;;;;;;;0.20;0.20;;;;;;;9.75;45.49;102535.78;5047023;28;20440;-64
2023/04/05 02:19:09;;;;;;;0.35;0.35;;;;;;;9.64;46.07;102538.91;5051290;28;20043;-64
2023/04/05 02:21:35;;;;;;;0.22;0.22;;;;;;;9.60;46.39;102537.56;5051249;28;20048;-66
2023/04/05 02:24:01;;;;;;;0.30;0.30;;;;;;;9.50;46.66;102539.66;5051144;28;20086;-64
2023/04/05 02:26:26;;;;;;;0.20;0.20;;;;;;;9.65;46.77;102541.38;5051037;28;20064;-65
2023/04/05 02:28:51;;;;;;;0.20;0.20;;;;;;;9.63;46.14;102543.41;5050839;28;20060;-65
2023/04/05 02:31:16;;;;;;;0.30;0.30;;;;;;;9.54;46.78;102533.75;5051428;28;20105;-65
2023/04/05 02:33:42;;;;;;;0.30;0.30;;;;;;;9.56;46.32;102534.41;5049494;28;20157;-64
2023/04/05 02:36:10;;;;;;;0.30;0.30;;;;;;;9.57;47.10;102528.03;5050825;28;20041;-64
2023/04/05 02:38:35;;;;;;;0.30;0.30;;;;;;;9.57;46.64;102530.69;5050523;28;20051;-66
2023/04/05 02:41:01;;;;;;;0.30;0.30;;;;;;;9.45;47.00;102534.78;5050571;28;20041;-67
2023/04/05 02:43:27;;;;;;;0.30;0.30;;;;;;;9.24;46.57;102528.38;5051212;28;20535;-64
2023/04/05 02:45:53;;;;;;;0.30;0.30;;;;;;;9.35;45.95;102528.84;5050863;28;20033;-67
2023/04/05 02:48:18;;;;;;;0.28;0.28;;;;;;;9.36;46.46;102524.28;5050726;28;20573;-65
2023/04/05 02:50:48;;;;;;;0.20;0.20;;;;;;;9.27;47.52;102523.50;5050358;28;20098;-65
2023/04/05 02:53:14;;;;;;;0.20;0.20;;;;;;;9.18;46.93;102524.56;5050343;28;20037;-68
2023/04/05 02:55:41;;;;;;;0.30;0.30;;;;;;;8.94;49.35;102521.16;5050957;28;20048;-64
2023/04/05 02:58:06;;;;;;;0.20;0.20;;;;;;;9.03;48.28;102520.94;5050462;28;20508;-65
2023/04/05 03:00:32;;;;;;;0.20;0.20;;;;;;;9.01;47.81;102512.22;5050211;28;20033;-64
2023/04/05 03:02:58;;;;;;;0.28;0.28;;;;;;;9.12;47.64;102521.75;5050027;28;20029;-66
2023/04/05 03:05:23;;;;;;;0.30;0.30;;;;;;;9.10;47.51;102515.72;5049760;28;20037;-66
2023/04/05 03:07:50;;;;;;;0.30;0.30;;;;;;;9.17;47.43;102519.38;5050090;28;20488;-64
2023/04/05 03:10:17;;;;;;;0.30;0.30;;;;;;;9.19;46.86;102514.66;5050265;28;20076;-66
2023/04/05 03:12:43;;;;;;;0.20;0.20;;;;;;;8.94;47.91;102519.31;5050126;28;20051;-65
2023/04/05 03:15:09;;;;;;;0.20;0.20;;;;;;;9.04;47.73;102513.75;5050171;28;20496;-65
2023/04/05 03:17:36;;;;;;;0.20;0.20;;;;;;;9.17;47.12;102514.84;5050299;28;20074;-67
2023/04/05 03:20:04;;;;;;;0.30;0.30;;;;;;;8.92;48.21;102507.09;5050058;28;20056;-66
2023/04/05 03:22:29;;;;;;;0.22;0.22;;;;;;;9.02;47.66;102508.53;5051210;28;20473;-64
2023/04/05 03:24:56;;;;;;;0.30;0.30;;;;;;;8.94;48.93;102511.28;5050417;28;20167;-64
2023/04/05 03:27:21;;;;;;;0.28;0.28;;;;;;;9.00;47.72;102499.84;5050329;28;20041;-67
2023/04/05 03:29:47;;;;;;;0.30;0.30;;;;;;;8.79;49.04;102510.28;5050141;28;20033;-66
2023/04/05 03:32:12;;;;;;;0.35;0.35;;;;;;;8.94;48.25;102497.88;5050099;28;20067;-66
2023/04/05 03:34:38;;;;;;;0.20;0.20;;;;;;;8.89;47.67;102502.91;5041859;28;20037;-64
2023/04/05 03:37:03;;;;;;;0.20;0.20;;;;;;;8.95;48.34;102496.84;5030468;28;20525;-64
2023/04/05 03:39:28;;;;;;;0.30;0.30;;;;;;;8.87;48.21;102494.19;5030541;28;20093;-65
2023/04/05 03:41:55;;;;;;;0.30;0.30;;;;;;;8.89;48.22;102494.84;5030227;28;20148;-64
2023/04/05 03:44:20;;;;;;;0.30;0.30;;;;;;;8.68;49.04;102502.63;5030830;28;20038;-65
2023/04/05 03:46:46;;;;;;;0.30;0.30;;;;;;;8.64;48.85;102493.28;5049885;28;20452;-66
2023/04/05 03:49:11;;;;;;;0.20;0.20;;;;;;;8.71;48.27;102496.91;5050347;28;20063;-66
2023/04/05 03:51:37;;;;;;;0.38;0.38;;;;;;;8.66;48.81;102493.94;5053644;28;20083;-66
2023/04/05 03:54:02;;;;;;;0.20;0.20;;;;;;;8.69;48.66;102496.25;5053971;28;20032;-64
2023/04/05 03:56:28;;;;;;;0.20;0.20;;;;;;;8.58;49.08;102497.47;5054137;28;20444;-65
2023/04/05 03:58:53;;;;;;;0.20;0.20;;;;;;;8.56;47.85;102491.47;5053710;28;20032;-64
2023/04/05 04:01:18;;;;;;;0.30;0.30;;;;;;;8.55;49.12;102497.00;5047225;28;20465;-65
2023/04/05 04:03:44;;;;;;;0.30;0.30;;;;;;;8.73;47.82;102490.38;5053538;28;20402;-66
2023/04/05 04:06:10;;;;;;;0.40;0.40;;;;;;;8.63;48.67;102494.25;5053494;28;20037;-64
2023/04/05 04:08:35;;;;;;;0.30;0.30;;;;;;;8.67;48.46;102495.59;5053224;28;20141;-68
2023/04/05 04:11:01;;;;;;;0.30;0.30;;;;;;;8.64;47.72;102490.59;5052728;28;20089;-65
2023/04/05 04:13:26;;;;;;;0.30;0.30;;;;;;;8.56;49.63;102490.63;5053475;28;20021;-63
2023/04/05 04:15:52;;;;;;;0.30;0.30;;;;;;;8.64;48.07;102488.75;5053278;28;20059;-67
2023/04/05 04:18:17;;;;;;;0.30;0.30;;;;;;;8.55;47.62;102495.13;5053263;28;20463;-65
2023/04/05 04:20:43;;;;;;;0.30;0.30;;;;;;;8.52;48.58;102490.13;5053030;28;20036;-65
2023/04/05 04:23:09;;;;;;;0.20;0.20;;;;;;;8.53;48.62;102494.47;5053073;28;20048;-65
2023/04/05 04:25:36;;;;;;;0.30;0.30;;;;;;;8.50;48.36;102492.13;5053595;28;20166;-65
2023/04/05 04:28:05;;;;;;;0.25;0.25;;;;;;;8.50;48.79;102491.28;5052806;28;20036;-65
2023/04/05 04:30:33;;;;;;;0.20;0.20;;;;;;;8.50;48.51;102478.75;5053012;28;20032;-66
2023/04/05 04:33:03;;;;;;;0.20;0.20;;;;;;;8.46;48.90;102482.78;5053381;28;20033;-64
2023/04/05 04:35:33;;;;;;;0.20;0.20;;;;;;;8.36;48.65;102483.97;5051810;28;20527;-66
2023/04/05 04:38:00;;;;;;;0.28;0.28;;;;;;;8.43;48.12;102488.47;5055080;28;20024;-65
2023/04/05 04:40:45;;;;;;;0.30;0.30;;;;;;;8.42;48.75;102484.13;5037492;28;20387;-65
2023/04/05 04:43:13;;;;;;;0.30;0.30;;;;;;;8.35;49.15;102483.16;5036138;28;20045;-66
2023/04/05 04:45:39;;;;;;;0.25;0.25;;;;;;;8.37;48.59;102478.41;5049627;28;20478;-66
2023/04/05 04:48:05;;;;;;;0.20;0.20;;;;;;;8.36;48.36;102484.81;5052269;28;20102;-69
2023/04/05 04:50:31;;;;;;;0.22;0.20;;;;;;;8.45;48.86;102478.41;5051725;28;20071;-66
2023/04/05 04:53:00;;;;;;;0.40;0.40;;;;;;;8.51;48.91;102480.41;5051526;28;20029;-67
2023/04/05 04:55:26;;;;;;;0.20;0.20;;;;;;;8.51;48.49;102477.72;5052157;28;20036;-67
2023/04/05 04:57:53;;;;;;;0.30;0.30;;;;;;;8.51;48.20;102482.28;5050946;28;20029;-66
2023/04/05 05:00:19;;;;;;;0.20;0.20;;;;;;;8.51;47.65;102482.28;5050044;28;20067;-66
2023/04/05 05:02:45;;;;;;;0.28;0.28;;;;;;;8.47;47.57;102484.44;5046183;28;20041;-67
2023/04/05 05:05:11;;;;;;;0.40;0.40;;;;;;;8.40;48.32;102479.94;5048803;28;20128;-66
2023/04/05 05:07:39;;;;;;;0.20;0.20;;;;;;;8.47;49.13;102486.28;5051439;28;20103;-67
2023/04/05 05:10:05;;;;;;;0.30;0.30;;;;;;;8.39;49.61;102487.13;5049460;28;20055;-66
2023/04/05 05:12:31;;;;;;;0.30;0.30;;;;;;;8.39;48.65;102483.63;5051927;28;20045;-65
2023/04/05 05:14:57;;;;;;;0.30;0.30;;;;;;;8.32;49.25;102480.78;5062349;28;20061;-66
2023/04/05 05:17:22;;;;;;;0.30;0.30;;;;;;;8.33;48.73;102479.81;5049645;28;20053;-64
2023/04/05 05:19:48;;;;;;;0.20;0.20;;;;;;;8.23;49.90;102470.22;5037128;28;20091;-66
2023/04/05 05:22:13;;;;;;;0.20;0.20;;;;;;;8.37;48.98;102480.28;5032528;28;20037;-64
2023/04/05 05:24:39;;;;;;;0.40;0.40;;;;;;;8.42;48.54;102480.59;5031812;28;20034;-65
2023/04/05 05:27:04;;;;;;;0.20;0.20;;;;;;;8.35;48.77;102483.16;5030531;28;20132;-65
2023/04/05 05:29:30;;;;;;;0.30;0.30;;;;;;;8.33;49.10;102481.63;5041639;28;20112;-67
2023/04/05 05:31:56;;;;;;;0.20;0.20;;;;;;;8.30;49.16;102474.78;5055295;28;20391;-67
2023/04/05 05:34:21;;;;;;;0.30;0.30;;;;;;;8.33;50.24;102477.13;5037415;28;20123;-67
2023/04/05 05:36:46;;;;;;;0.30;0.30;;;;;;;8.52;49.43;102475.88;5058035;28;20111;-66
2023/04/05 05:39:12;;;;;;;0.30;0.30;;;;;;;8.60;49.20;102475.88;5055561;28;20109;-67
2023/04/05 05:41:37;;;;;;;0.30;0.30;;;;;;;8.52;48.74;102466.00;5034862;28;20088;-66
2023/04/05 05:44:03;;;;;;;0.30;0.30;;;;;;;8.52;49.00;102463.34;5053590;28;20526;-67
2023/04/05 05:46:28;;;;;;;0.30;0.30;;;;;;;8.57;49.02;102473.53;5042515;28;20147;-66
2023/04/05 05:48:53;;;;;;;0.30;0.30;;;;;;;8.59;48.59;102471.50;5053500;28;20040;-65
2023/04/05 05:51:19;;;;;;;0.30;0.30;;;;;;;8.58;48.87;102476.03;5045837;28;20087;-66
2023/04/05 05:53:45;;;;;;;0.30;0.30;;;;;;;8.67;48.54;102471.47;5029476;28;20102;-66
2023/04/05 05:56:11;;;;;;;0.30;0.30;;;;;;;8.71;48.82;102480.84;5041497;28;20129;-66
2023/04/05 05:58:38;;;;;;;0.20;0.20;;;;;;;8.68;49.20;102474.00;5022146;28;20489;-66
2023/04/05 06:01:05;;;;;;;0.30;0.30;;;;;;;8.75;49.32;102466.94;5037936;28;20079;-66
2023/04/05 06:03:31;;;;;;;0.20;0.20;;;;;;;8.80;48.61;102464.56;5045111;28;20606;-68
2023/04/05 06:05:58;;;;;;;0.30;0.30;;;;;;;8.95;49.32;102461.16;5051118;28;20045;-69
2023/04/05 06:08:26;;;;;;;0.30;0.30;;;;;;;8.89;50.25;102460.00;5033126;28;20033;-66
2023/04/05 06:10:52;;;;;;;0.30;0.30;;;;;;;8.98;49.75;102467.00;5050882;28;20064;-67
2023/04/05 06:13:18;;;;;;;0.30;0.30;;;;;;;9.20;48.81;102473.44;5047604;28;20021;-65
2023/04/05 06:15:43;;;;;;;0.30;0.30;;;;;;;9.18;48.79;102481.63;5050217;28;20519;-66
2023/04/05 06:18:09;;;;;;;0.30;0.30;;;;;;;9.34;48.68;102475.34;5050911;28;20500;-66
2023/04/05 06:20:39;;;;;;;0.30;0.30;;;;;;;9.26;49.08;102480.75;5043915;28;20091;-66
2023/04/05 06:23:05;;;;;;;0.20;0.20;;;;;;;9.31;48.89;102484.59;5039923;28;20026;-65
2023/04/05 06:25:30;;;;;;;0.20;0.20;;;;;;;9.35;49.15;102475.19;5031549;28;20473;-66
2023/04/05 06:27:56;;;;;;;0.30;0.30;;;;;;;9.29;49.37;102483.94;5038181;28;20091;-66
2023/04/05 06:30:21;;;;;;;0.20;0.20;;;;;;;9.37;48.41;102478.53;5050856;28;20210;-65
2023/04/05 06:32:47;;;;;;;0.22;0.22;;;;;;;9.48;48.63;102483.47;5050705;28;20029;-65
2023/04/05 06:35:12;;;;;;;0.30;0.30;;;;;;;9.63;47.94;102486.25;5050527;28;20047;-65
2023/04/05 06:37:38;;;;;;;0.20;0.20;;;;;;;9.62;47.49;102476.50;5023797;28;20079;-65
2023/04/05 06:40:04;;;;;;;0.20;0.20;;;;;;;9.84;47.31;102481.03;5030651;28;20048;-65
2023/04/05 06:42:29;;;;;;;0.20;0.20;;;;;;;9.97;47.96;102478.56;5045681;28;20528;-66
2023/04/05 06:44:55;;;;;;;0.20;0.20;;;;;;;10.09;47.61;102482.50;5033246;28;20087;-66
2023/04/05 06:47:20;;;;;;;0.30;0.30;;;;;;;10.24;47.04;102483.38;5050861;28;20044;-66
2023/04/05 06:49:46;;;;;;;0.30;0.30;;;;;;;10.05;47.18;102478.50;5050464;28;20024;-66
2023/04/05 06:52:11;;;;;;;0.30;0.30;;;;;;;10.17;47.02;102486.97;5051474;28;20092;-65
2023/04/05 06:54:38;;;;;;;0.30;0.30;;;;;;;10.42;46.54;102485.72;5050841;28;20125;-66
2023/04/05 06:57:03;;;;;;;0.30;0.30;;;;;;;10.47;46.62;102484.16;5050787;28;20036;-66
2023/04/05 06:59:28;;;;;;;0.30;0.20;;;;;;;10.68;46.06;102486.09;5050569;28;20068;-66
2023/04/05 07:01:54;;;;;;;0.20;0.20;;;;;;;10.13;46.26;102483.81;5050753;28;20052;-68
2023/04/05 07:04:20;;;;;;;0.20;0.20;;;;;;;10.50;45.10;102480.25;5051439;28;20044;-66
2023/04/05 07:06:46;;;;;;;0.20;0.20;;;;;;;10.81;44.73;102486.28;5050981;28;20090;-66
2023/04/05 07:09:11;;;;;;;0.20;0.20;;;;;;;10.92;44.52;102482.28;5051522;28;20504;-65
2023/04/05 07:11:38;;;;;;;0.20;0.20;;;;;;;10.52;45.16;102476.38;5050876;28;20492;-66
2023/04/05 07:14:04;;;;;;;0.20;0.20;;;;;;;10.59;45.36;102476.47;5051743;28;20488;-66
2023/04/05 07:16:30;;;;;;;0.28;0.28;;;;;;;10.52;45.57;102476.38;5052200;28;20059;-65
2023/04/05 07:18:56;;;;;;;0.32;0.30;;;;;;;10.47;45.16;102489.53;5051430;28;20033;-65
2023/04/05 07:21:22;;;;;;;0.57;0.30;;;;;;;10.84;44.63;102475.16;5050808;28;20112;-66
2023/04/05 07:23:47;;;;;;;0.30;0.30;;;;;;;10.96;44.36;102481.75;5051867;28;20453;-65
2023/04/05 07:26:13;;;;;;;0.20;0.20;;;;;;;11.00;43.82;102480.34;5054691;28;20038;-66
2023/04/05 07:28:38;;;;;;;0.20;0.20;;;;;;;11.09;43.92;102484.59;5054743;28;20017;-67
2023/04/05 07:31:05;;;;;;;0.20;0.20;;;;;;;11.13;43.64;102482.34;5054517;28;20496;-70
2023/04/05 07:33:30;;;;;;;0.20;0.20;;;;;;;11.19;43.12;102478.91;5054163;28;20036;-65
2023/04/05 07:35:56;;;;;;;0.20;0.20;;;;;;;11.21;43.31;102482.22;5034210;28;20113;-66
2023/04/05 07:38:22;;;;;;;0.28;0.28;;;;;;;11.20;43.74;102478.69;5034664;28;20253;-66
2023/04/05 07:40:49;;;;;;;0.25;0.25;;;;;;;11.51;43.50;102475.75;5034260;28;20030;-66
2023/04/05 07:43:15;;;;;;;0.20;0.20;;;;;;;11.57;43.38;102477.69;5034642;28;20264;-66
2023/04/05 07:45:40;;;;;;;0.20;0.20;;;;;;;11.68;42.13;102481.72;5033455;28;20637;-66
2023/04/05 07:48:06;;;;;;;0.30;0.30;;;;;;;11.80;40.99;102478.34;5033573;28;20029;-65
2023/04/05 07:50:33;;;;;;;0.22;0.22;;;;;;;11.58;39.63;102473.13;5033660;28;20056;-65
2023/04/05 07:52:58;;;;;;;0.20;0.20;;;;;;;11.74;40.46;102472.88;5033255;28;20032;-66
2023/04/05 07:55:23;;;;;;;0.28;0.28;;;;;;;11.79;40.19;102473.16;5015823;28;20041;-66
2023/04/05 07:57:49;;;;;;;0.30;0.30;;;;;;;12.16;40.11;102464.75;5033494;28;20053;-66
2023/04/05 08:00:15;;;;;;;0.25;0.25;;;;;;;12.05;40.11;102471.50;5033533;28;20061;-66
2023/04/05 08:02:40;;;;;;;0.20;0.20;;;;;;;12.11;40.13;102470.72;5052848;28;20444;-68
2023/04/05 08:05:06;;;;;;;0.20;0.20;;;;;;;12.28;39.54;102477.50;5035234;28;20164;-67
2023/04/05 08:07:31;;;;;;;0.20;0.20;;;;;;;12.11;38.96;102470.72;5053988;28;20174;-66
2023/04/05 08:09:58;;;;;;;0.20;0.20;;;;;;;12.44;38.46;102468.28;5050821;28;20045;-67
2023/04/05 08:12:24;;;;;;;0.20;0.20;;;;;;;12.67;38.35;102466.16;5053197;28;20040;-64
2023/04/05 08:14:50;;;;;;;0.20;0.20;;;;;;;12.73;38.72;102462.66;5053369;28;20045;-64
2023/04/05 08:17:15;;;;;;;0.20;0.20;;;;;;;13.03;37.99;102464.03;5052789;28;20048;-66
2023/04/05 08:19:41;;;;;;;0.20;0.20;;;;;;;13.02;37.81;102466.91;5052899;28;20036;-67
2023/04/05 08:22:06;;;;;;;0.10;0.10;;;;;;;13.18;36.91;102466.59;5053408;28;20108;-65
2023/04/05 08:24:31;;;;;;;0.15;0.15;;;;;;;13.38;36.60;102463.97;5053050;28;20061;-65
2023/04/05 08:26:57;;;;;;;0.20;0.20;;;;;;;13.50;35.45;102465.03;5052909;28;20191;-66
2023/04/05 08:29:22;;;;;;;0.20;0.20;;;;;;;13.51;35.90;102459.41;5053020;28;20082;-65
2023/04/05 08:31:47;;;;;;;0.20;0.20;;;;;;;13.07;34.53;102459.91;5052948;28;20033;-64
2023/04/05 08:34:13;;;;;;;0.20;0.20;;;;;;;12.86;34.39;102461.88;5038662;28;20418;-66
2023/04/05 08:36:38;;;;;;;0.10;0.10;;;;;;;13.57;33.81;102457.75;5012180;28;20044;-66
2023/04/05 08:39:03;;;;;;;0.20;0.20;;;;;;;13.85;33.12;102455.72;5012857;28;20060;-66
2023/04/05 08:41:36;;;;;;;0.20;0.20;;;;;;;13.76;35.23;102457.78;5014840;28;20096;-68
2023/04/05 08:44:04;;;;;;;0.20;0.20;;;;;;;14.05;34.84;102451.97;5032659;28;20046;-65
2023/04/05 08:46:31;;;;;;;0.30;0.30;;;;;;;13.88;33.99;102448.03;5033060;28;20123;-64
2023/04/05 08:48:57;;;;;;;0.10;0.10;;;;;;;14.15;34.67;102456.13;5032654;28;20101;-65
2023/04/05 08:51:23;;;;;;;0.20;0.20;;;;;;;13.84;34.37;102446.78;5032458;28;20490;-65
2023/04/05 08:53:49;;;;;;;0.10;0.10;;;;;;;14.06;34.10;102448.25;5032689;28;20056;-66
2023/04/05 08:56:17;;;;;;;0.20;0.20;;;;;;;13.97;34.26;102448.66;5032424;28;20033;-65
2023/04/05 08:58:51;;;;;;;0.20;0.20;;;;;;;13.45;33.37;102440.50;5032270;28;20033;-66
2023/04/05 09:01:17;;;;;;;0.20;0.20;;;;;;;13.82;33.01;102440.75;5040808;28;20072;-66
2023/04/05 09:03:43;;;;;;;0.20;0.20;;;;;;;14.02;32.18;102440.75;5051955;28;20516;-65
2023/04/05 09:06:10;;;;;;;0.20;0.20;;;;;;;13.68;32.97;102436.38;5052153;28;20041;-66
2023/04/05 09:08:37;;;;;;;0.10;0.10;;;;;;;14.07;34.01;102438.25;5052133;28;20047;-66
2023/04/05 09:11:02;;;;;;;0.13;0.13;;;;;;;14.60;33.33;102431.72;5051905;28;20516;-65
2023/04/05 09:13:28;;;;;;;0.10;0.10;;;;;;;15.14;31.38;102442.13;5052297;28;20029;-64
2023/04/05 09:15:54;;;;;;;0.30;0.30;;;;;;;15.47;30.89;102437.38;5033771;28;20029;-66
2023/04/05 09:18:20;;;;;;;0.10;0.10;;;;;;;15.09;29.87;102441.97;5032269;28;20037;-66
2023/04/05 09:20:45;;;;;;;0.30;0.30;;;;;;;15.25;30.07;102440.63;5031851;28;20052;-66
2023/04/05 09:23:11;;;;;;;0.20;0.20;;;;;;;14.98;29.48;102435.34;5031789;28;20037;-67
2023/04/05 09:25:38;;;;;;;0.20;0.20;;;;;;;14.49;29.02;102432.38;5032259;28;20029;-65
2023/04/05 09:28:08;;;;;;;0.10;0.10;;;;;;;14.45;29.06;102436.56;5031724;28;20029;-65
2023/04/05 09:30:36;;;;;;;0.20;0.20;;;;;;;15.60;28.83;102428.34;5022701;28;20033;-66
2023/04/05 09:33:02;;;;;;;1.65;0.20;;;;;;;15.93;27.37;102426.19;5011789;28;20065;-65
2023/04/05 09:35:30;;;;;;;0.10;0.10;;;;;;;15.82;27.12;102426.91;4996000;28;20121;-67
2023/04/05 09:37:58;;;;;;;0.20;0.20;;;;;;;15.79;27.19;102421.94;5000504;28;20029;-68
2023/04/05 09:40:39;;;;;;;0.20;0.20;;;;;;;14.06;29.58;102428.47;5013549;28;20507;-67
2023/04/05 09:43:05;;;;;;;0.20;0.20;;;;;;;13.76;31.01;102422.66;5032280;28;20050;-66
2023/04/05 09:45:38;;;;;;;0.20;0.20;;;;;;;13.02;31.12;102434.53;5013193;28;20037;-66
2023/04/05 09:48:04;;;;;;;0.20;0.20;;;;;;;13.59;30.34;102432.22;5030907;28;20111;-67
2023/04/05 09:50:29;;;;;;;0.22;0.22;;;;;;;13.90;29.66;102434.31;5031776;28;20041;-66
2023/04/05 09:53:05;;;;;;;0.10;0.10;;;;;;;14.81;28.72;102431.47;5031672;28;20082;-66
2023/04/05 09:55:32;;;;;;;0.20;0.20;;;;;;;14.64;28.97;102432.97;5032013;28;20026;-65
2023/04/05 09:57:57;;;;;;;0.20;0.20;;;;;;;14.50;28.93;102427.81;5031387;28;20128;-66
2023/04/05 10:00:23;;;;;;;0.20;0.20;;;;;;;15.52;28.92;102426.72;5031842;28;20045;-67
2023/04/05 10:02:52;;;;;;;0.20;0.20;;;;;;;15.09;28.34;102431.13;5051600;28;20401;-65
2023/04/05 10:05:17;;;;;;;0.30;0.30;;;;;;;15.57;27.97;102416.06;5033079;28;20052;-65
2023/04/05 10:07:44;;;;;;;0.20;0.20;;;;;;;16.23;28.95;102410.91;5052018;28;20594;-67
2023/04/05 10:10:11;;;;;;;0.13;0.13;;;;;;;16.24;27.75;102411.69;5052497;28;20057;-65
2023/04/05 10:12:40;;;;;;;0.20;0.20;;;;;;;16.91;26.94;102408.03;5051902;28;20555;-66
2023/04/05 10:15:06;;;;;;;0.30;0.30;;;;;;;16.43;28.00;102416.13;5051893;28;20461;-66
2023/04/05 10:17:54;;;;;;;0.20;0.20;;;;;;;15.55;28.24;102411.88;5051784;28;20029;-65
2023/04/05 10:20:23;;;;;;;0.20;0.20;;;;;;;16.01;27.72;102411.53;5050894;28;20343;-65
2023/04/05 10:22:51;;;;;;;0.30;0.30;;;;;;;16.58;28.14;102411.16;5050817;28;20064;-65
2023/04/05 10:25:41;;;;;;;0.10;0.10;;;;;;;16.83;27.47;102408.34;5033647;28;20037;-65
2023/04/05 10:28:16;;;;;;;0.10;0.10;;;;;;;16.75;27.81;102401.34;5011215;28;20037;-67
2023/04/05 10:30:46;;;;;;;0.20;0.20;;;;;;;17.06;27.08;102392.97;4993004;28;20121;-67
2023/04/05 10:33:35;;;;;;;0.10;0.10;;;;;;;15.47;28.14;102396.72;5011072;28;20157;-68
2023/04/05 10:36:36;;;;;;;0.20;0.20;;;;;;;15.87;27.70;102389.13;5029803;28;20056;-65
2023/04/05 10:39:03;;;;;;;;;;;;;;;15.67;27.67;102388.44;5031182;28;20033;-67
2023/04/05 10:41:34;;;;;;;0.10;0.10;;;;;;;16.01;28.36;102385.25;5030408;28;19960;-65
2023/04/05 10:44:02;;;;;;;0.20;0.20;;;;;;;17.04;27.14;102378.00;5030350;28;20128;-65
2023/04/05 10:46:29;;;;;;;0.20;0.20;;;;;;;17.30;27.00;102378.44;5030826;28;20104;-66
2023/04/05 10:49:33;;;;;;;0.20;0.20;;;;;;;17.67;27.59;102381.84;5030401;28;20128;-66
2023/04/05 10:51:59;;;;;;;0.30;0.30;;;;;;;17.70;26.76;102375.09;4948931;29;20616;-67
2023/04/05 10:54:26;;;;;;;0.20;0.20;;;;;;;17.18;26.52;102376.72;4949663;28;20042;-65
2023/04/05 10:56:51;;;;;;;0.20;0.20;;;;;;;17.60;27.34;102363.97;4949994;29;20054;-67
2023/04/05 10:59:17;;;;;;;0.10;0.10;;;;;;;17.43;25.69;102370.06;4948882;28;20200;-67
2023/04/05 11:01:45;;;;;;;0.22;0.22;;;;;;;17.75;25.48;102365.19;4949436;29;20043;-66
2023/04/05 11:04:15;;;;;;;0.10;0.10;;;;;;;18.23;24.95;102360.34;4950059;29;20122;-66
2023/04/05 11:06:41;;;;;;;0.10;0.10;;;;;;;16.63;24.17;102352.41;4949682;29;20082;-67
2023/04/05 11:09:09;;;;;;;0.10;0.10;;;;;;;17.18;24.07;102361.25;4949909;28;20102;-66
2023/04/05 11:11:38;;;;;;;0.10;0.10;;;;;;;17.33;25.47;102344.53;4952552;28;20201;-66
2023/04/05 11:14:19;;;;;;;0.17;0.17;;;;;;;18.00;24.51;102344.03;4968412;28;20042;-66
2023/04/05 11:16:47;;;;;;;0.10;0.10;;;;;;;18.09;24.63;102349.91;4968715;28;20030;-66
2023/04/05 11:19:15;;;;;;;0.15;0.15;;;;;;;18.31;24.45;102348.25;4969102;28;20023;-67
2023/04/05 11:21:40;;;;;;;0.20;0.20;;;;;;;17.60;24.16;102340.34;4968623;28;20542;-66
2023/04/05 11:24:08;;;;;;;0.20;0.20;;;;;;;17.56;24.09;102336.44;4968784;28;20063;-66
2023/04/05 11:26:40;;;;;;;0.20;0.20;;;;;;;16.60;24.53;102341.19;4971163;28;20403;-66
2023/04/05 11:29:09;;;;;;;0.30;0.20;;;;;;;17.12;24.14;102335.03;4990523;28;20457;-66